Time;durP1;ratioP1;P1;durP2;ratioP2;P2;SDS_P1;SDS_P2;PMS_P1;PMS_P2;Temp;Humidity;BMP_temperature;BMP_pressure;BME280_temperature;BME280_humidity;BME280_pressure;Samples;Min_cycle;Max_cycle;Signal;HPM_P1;HPM_P2
2024/01/17 00:00:07;;;;;;;12.77;10.47;;;-3.20;1.00;;;;;;5072892;28;20197;-70
2024/01/17 00:02:32;;;;;;;20.27;11.17;;;-3.00;1.00;;;;;;5072390;28;20561;-70
2024/01/17 00:04:58;;;;;;;19.70;11.00;;;-3.00;1.00;;;;;;5072710;28;20177;-70
2024/01/17 00:07:24;;;;;;;15.07;11.20;;;-3.10;1.00;;;;;;5072780;28;20177;-70
2024/01/17 00:09:50;;;;;;;12.73;10.77;;;-3.20;1.00;;;;;;5072349;28;20166;-70
2024/01/17 00:12:16;;;;;;;15.67;11.57;;;-3.20;99.90;;;;;;5072796;28;20186;-71
2024/01/17 00:14:42;;;;;;;19.00;12.37;;;-3.30;99.90;;;;;;5072497;28;20205;-70
2024/01/17 00:17:08;;;;;;;15.70;10.23;;;-3.20;99.90;;;;;;5072014;28;20174;-70
2024/01/17 00:19:34;;;;;;;11.17;10.03;;;-3.20;99.90;;;;;;5072037;28;20174;-71
2024/01/17 00:22:00;;;;;;;15.83;11.17;;;-3.20;99.90;;;;;;5072429;28;20170;-71
2024/01/17 00:24:26;;;;;;;16.47;10.00;;;-3.20;99.90;;;;;;5072440;28;20650;-71
2024/01/17 00:26:52;;;;;;;11.07;9.93;;;-3.20;99.90;;;;;;5054478;28;20182;-70
2024/01/17 00:29:17;;;;;;;17.23;9.70;;;-3.20;99.90;;;;;;5071802;28;20416;-70
2024/01/17 00:31:43;;;;;;;13.70;10.40;;;-3.30;99.90;;;;;;5054561;28;20174;-70
2024/01/17 00:34:09;;;;;;;10.50;9.20;;;-3.20;93.90;;;;;;5071644;28;20201;-71
2024/01/17 00:36:34;;;;;;;10.97;9.63;;;-3.20;39.20;;;;;;5072370;28;20171;-72
2024/01/17 00:39:00;;;;;;;14.20;9.63;;;-3.20;1.00;;;;;;5071863;28;20528;-70
2024/01/17 00:41:25;;;;;;;17.33;10.90;;;-3.30;57.20;;;;;;5072448;28;20257;-70
2024/01/17 00:43:51;;;;;;;12.10;10.80;;;-3.30;50.00;;;;;;5071985;28;20216;-71
2024/01/17 00:46:17;;;;;;;11.93;10.63;;;-3.30;94.10;;;;;;5072247;28;20255;-70
2024/01/17 00:48:43;;;;;;;13.40;9.93;;;-3.40;27.70;;;;;;5072171;28;20552;-70
2024/01/17 00:51:09;;;;;;;11.30;10.13;;;-3.30;9.20;;;;;;5055351;28;20193;-70
2024/01/17 00:53:35;;;;;;;13.40;9.97;;;-3.30;99.90;;;;;;5072902;28;20351;-73
2024/01/17 00:56:00;;;;;;;11.83;9.83;;;-3.40;99.90;;;;;;5071913;28;20174;-69
2024/01/17 00:58:27;;;;;;;11.23;9.67;;;-3.40;1.00;;;;;;5071184;28;20723;-69
2024/01/17 01:00:52;;;;;;;18.17;9.30;;;-3.20;1.00;;;;;;5071898;28;20174;-72
2024/01/17 01:03:18;;;;;;;24.37;10.77;;;-3.40;1.00;;;;;;5071761;28;20185;-72
2024/01/17 01:05:43;;;;;;;13.23;9.83;;;-3.30;99.90;;;;;;5071552;28;20235;-72
2024/01/17 01:08:09;;;;;;;11.43;9.80;;;-3.20;99.90;;;;;;5071412;28;20270;-71
2024/01/17 01:10:34;;;;;;;10.17;9.07;;;-3.30;97.70;;;;;;5071846;28;20232;-70
2024/01/17 01:13:00;;;;;;;17.33;10.03;;;-3.10;99.90;;;;;;5071559;28;20201;-70
2024/01/17 01:15:25;;;;;;;13.73;10.53;;;-3.20;99.90;;;;;;5053642;28;20617;-70
2024/01/17 01:17:51;;;;;;;15.07;10.23;;;-3.20;91.20;;;;;;5071564;28;20243;-71
2024/01/17 01:20:17;;;;;;;14.23;10.33;;;-3.30;98.60;;;;;;5052635;28;20186;-71
2024/01/17 01:22:43;;;;;;;17.20;10.23;;;-3.10;99.90;;;;;;5071649;28;20174;-70
2024/01/17 01:25:09;;;;;;;11.70;9.30;;;-3.10;99.90;;;;;;5071292;28;20247;-70
2024/01/17 01:27:34;;;;;;;16.00;11.40;;;-3.20;1.00;;;;;;5071339;28;20285;-71
2024/01/17 01:30:00;;;;;;;14.80;10.23;;;-3.20;99.90;;;;;;5071260;28;20222;-71
2024/01/17 01:32:26;;;;;;;16.20;10.23;;;-3.10;95.90;;;;;;5071276;28;20223;-71
2024/01/17 01:34:51;;;;;;;14.40;11.07;;;-3.00;96.30;;;;;;5071439;28;20584;-71
2024/01/17 01:37:17;;;;;;;12.23;10.57;;;-3.00;99.90;;;;;;5053059;28;20197;-70
2024/01/17 01:39:42;;;;;;;13.40;10.33;;;-3.00;99.90;;;;;;5071490;28;20169;-70
2024/01/17 01:42:08;;;;;;;13.47;11.00;;;-3.10;99.90;;;;;;5053504;28;20182;-69
2024/01/17 01:44:34;;;;;;;22.83;10.97;;;-3.10;99.90;;;;;;5071310;28;20688;-70
2024/01/17 01:47:00;;;;;;;11.63;10.27;;;-3.00;99.90;;;;;;5071363;28;20213;-70
2024/01/17 01:49:26;;;;;;;16.37;11.60;;;-3.00;99.90;;;;;;5071191;28;20194;-70
2024/01/17 01:51:53;;;;;;;20.33;11.67;;;-3.10;99.90;;;;;;5071148;28;20182;-70
2024/01/17 01:54:21;;;;;;;15.50;11.20;;;-3.10;99.90;;;;;;5070781;28;20216;-70
2024/01/17 01:56:48;;;;;;;20.77;11.73;;;-3.00;1.00;;;;;;5071296;28;20535;-70
2024/01/17 01:59:19;;;;;;;15.07;11.27;;;-3.00;1.00;;;;;;5070967;28;20200;-71
2024/01/17 02:01:45;;;;;;;15.13;11.00;;;-3.00;1.00;;;;;;5071300;28;20174;-70
2024/01/17 02:04:11;;;;;;;17.77;12.17;;;-3.00;1.00;;;;;;5071239;28;20257;-71
2024/01/17 02:06:38;;;;;;;14.40;11.17;;;-3.00;1.00;;;;;;5071041;28;20178;-70
2024/01/17 02:09:04;;;;;;;16.33;12.50;;;-3.10;1.00;;;;;;5071390;28;20615;-70
2024/01/17 02:11:30;;;;;;;16.67;12.83;;;-2.90;1.00;;;;;;5071596;28;20239;-70
2024/01/17 02:13:57;;;;;;;14.03;12.53;;;-3.10;1.00;;;;;;5072995;28;20210;-71
2024/01/17 02:16:24;;;;;;;15.57;12.53;;;-3.10;1.00;;;;;;5036742;28;20182;-71
2024/01/17 02:18:50;;;;;;;14.93;12.47;;;-3.10;1.00;;;;;;5070469;28;20281;-70
2024/01/17 02:21:16;;;;;;;15.10;12.30;;;-3.10;1.00;;;;;;5070438;28;20234;-71
2024/01/17 02:23:42;;;;;;;20.03;11.80;;;-3.00;1.00;;;;;;5070937;28;20261;-70
2024/01/17 02:26:08;;;;;;;15.47;11.70;;;-3.20;1.00;;;;;;5070824;28;20182;-70
2024/01/17 02:28:35;;;;;;;21.67;12.00;;;-3.10;1.00;;;;;;5071075;28;20248;-70
2024/01/17 02:31:01;;;;;;;14.67;12.20;;;-3.10;1.00;;;;;;5071073;28;20174;-72
2024/01/17 02:33:27;;;;;;;23.07;12.90;;;-3.10;1.00;;;;;;5052560;28;20685;-71
2024/01/17 02:35:53;;;;;;;15.10;11.47;;;-3.20;1.00;;;;;;5070785;28;20266;-70
2024/01/17 02:38:18;;;;;;;13.23;11.73;;;-3.30;1.00;;;;;;5070438;28;20201;-71
2024/01/17 02:40:44;;;;;;;16.73;11.77;;;-3.30;13.80;;;;;;5070764;28;20178;-70
2024/01/17 02:43:10;;;;;;;18.60;11.87;;;-3.20;59.90;;;;;;5070770;28;20213;-70
2024/01/17 02:45:35;;;;;;;13.37;11.73;;;-3.20;31.20;;;;;;5070260;28;20186;-71
2024/01/17 02:48:01;;;;;;;15.60;11.73;;;-3.20;99.90;;;;;;5070392;28;20276;-70
2024/01/17 02:50:27;;;;;;;20.57;11.23;;;-3.10;58.30;;;;;;5070642;28;20174;-70
2024/01/17 02:52:53;;;;;;;15.07;11.87;;;-3.10;66.20;;;;;;5070602;28;20227;-70
2024/01/17 02:55:19;;;;;;;14.70;12.83;;;-3.10;99.90;;;;;;5070652;28;20542;-70
2024/01/17 02:57:45;;;;;;;17.77;12.87;;;-3.10;99.90;;;;;;5055893;28;20190;-70
2024/01/17 03:00:11;;;;;;;14.97;12.43;;;-3.20;99.90;;;;;;5073617;28;20257;-71
2024/01/17 03:02:37;;;;;;;18.40;12.30;;;-3.20;99.90;;;;;;5073446;28;20178;-71
2024/01/17 03:05:04;;;;;;;15.17;11.77;;;-3.10;99.90;;;;;;5074035;28;20172;-71
2024/01/17 03:07:33;;;;;;;19.37;11.93;;;-3.10;99.90;;;;;;5073994;28;20248;-70
2024/01/17 03:09:58;;;;;;;19.80;12.57;;;-3.10;99.90;;;;;;5073872;28;20219;-72
2024/01/17 03:12:24;;;;;;;21.87;14.30;;;-3.20;99.90;;;;;;5074024;28;20178;-70
2024/01/17 03:14:50;;;;;;;23.20;13.07;;;-3.10;90.90;;;;;;5074036;28;20216;-70
2024/01/17 03:17:16;;;;;;;18.00;13.47;;;-3.20;49.40;;;;;;5056004;28;20227;-70
2024/01/17 03:19:48;;;;;;;16.30;12.93;;;-3.20;6.80;;;;;;5073567;28;20224;-70
2024/01/17 03:22:17;;;;;;;19.13;12.47;;;-3.30;4.30;;;;;;5073614;28;20202;-70
2024/01/17 03:24:45;;;;;;;20.47;12.23;;;-3.20;1.00;;;;;;5074127;28;20174;-70
2024/01/17 03:27:12;;;;;;;18.70;13.77;;;-3.20;14.10;;;;;;5074275;28;20178;-70
2024/01/17 03:29:38;;;;;;;18.30;14.13;;;-3.20;63.90;;;;;;5074033;28;20197;-71
2024/01/17 03:32:04;;;;;;;19.80;12.83;;;-3.30;53.80;;;;;;5074027;28;20611;-71
2024/01/17 03:34:29;;;;;;;15.00;12.30;;;-3.30;99.90;;;;;;5075061;28;20673;-69
2024/01/17 03:36:55;;;;;;;23.03;14.07;;;-3.30;44.00;;;;;;5058910;28;20178;-69
2024/01/17 03:39:21;;;;;;;13.10;11.80;;;-3.40;99.90;;;;;;5055428;28;20198;-70
2024/01/17 03:41:46;;;;;;;22.13;13.13;;;-3.40;90.60;;;;;;5073885;28;20538;-70
2024/01/17 03:44:12;;;;;;;17.70;13.33;;;-3.40;99.90;;;;;;5073806;28;20177;-71
2024/01/17 03:46:37;;;;;;;14.73;12.93;;;-3.30;99.90;;;;;;5055502;28;20248;-69
2024/01/17 03:49:03;;;;;;;21.80;12.70;;;-3.30;99.90;;;;;;5073454;28;20697;-69
2024/01/17 03:51:29;;;;;;;17.73;13.67;;;-3.30;99.90;;;;;;5073304;28;20182;-72
2024/01/17 03:53:54;;;;;;;20.13;13.50;;;-3.40;99.90;;;;;;5073161;28;20220;-69
2024/01/17 03:56:20;;;;;;;18.60;12.57;;;-3.30;99.90;;;;;;5073158;28;20174;-70
2024/01/17 03:58:45;;;;;;;20.10;13.93;;;-3.30;99.90;;;;;;5072747;28;20202;-69
2024/01/17 04:01:12;;;;;;;16.40;13.80;;;-3.30;99.90;;;;;;5055167;28;20175;-69
2024/01/17 04:03:39;;;;;;;24.20;15.00;;;-3.20;99.90;;;;;;5073152;28;20657;-71
2024/01/17 04:06:05;;;;;;;21.13;13.40;;;-3.20;99.90;;;;;;5073004;28;20192;-71
2024/01/17 04:08:31;;;;;;;21.63;14.23;;;-3.20;99.90;;;;;;5071467;28;20285;-71
2024/01/17 04:10:57;;;;;;;20.17;14.80;;;-3.20;99.90;;;;;;5073159;28;20182;-72
2024/01/17 04:13:23;;;;;;;20.03;12.93;;;-3.10;99.90;;;;;;5072973;28;20571;-71
2024/01/17 04:15:48;;;;;;;17.57;13.87;;;-3.20;99.90;;;;;;5072792;28;20220;-70
2024/01/17 04:18:14;;;;;;;25.23;14.00;;;-3.10;99.90;;;;;;5073100;28;20244;-70
2024/01/17 04:20:39;;;;;;;19.43;13.53;;;-3.00;99.90;;;;;;5072029;28;20900;-70
2024/01/17 04:23:05;;;;;;;17.57;13.07;;;-3.10;99.90;;;;;;5072696;28;20185;-70
2024/01/17 04:25:31;;;;;;;29.83;14.07;;;-2.90;99.90;;;;;;5072364;28;20174;-70
2024/01/17 04:27:57;;;;;;;19.33;13.93;;;-3.00;99.90;;;;;;5072218;28;20221;-70
2024/01/17 04:30:22;;;;;;;14.47;12.67;;;-2.90;99.90;;;;;;5072320;28;20178;-70
2024/01/17 04:32:48;;;;;;;22.87;14.80;;;-2.90;99.90;;;;;;5072260;28;20220;-70
2024/01/17 04:35:21;;;;;;;21.80;14.13;;;-3.00;99.90;;;;;;5072396;28;20166;-70
2024/01/17 04:37:47;;;;;;;21.93;14.30;;;-2.90;99.90;;;;;;5072383;28;20190;-70
2024/01/17 04:40:12;;;;;;;22.87;13.70;;;-2.90;99.90;;;;;;5072214;28;20185;-70
2024/01/17 04:42:38;;;;;;;23.13;14.40;;;-3.00;99.90;;;;;;5071969;28;20204;-70
2024/01/17 04:45:04;;;;;;;19.57;13.60;;;-2.90;99.90;;;;;;5072441;28;20626;-70
2024/01/17 04:47:31;;;;;;;20.90;13.53;;;-3.00;99.90;;;;;;5071995;28;20204;-71
2024/01/17 04:49:56;;;;;;;19.50;13.77;;;-3.00;99.90;;;;;;5072208;28;20546;-71
2024/01/17 04:52:23;;;;;;;16.17;13.67;;;-3.10;80.00;;;;;;5072154;28;20182;-71
2024/01/17 04:54:51;;;;;;;22.73;14.80;;;-2.90;99.90;;;;;;5054380;28;20732;-71
2024/01/17 04:57:17;;;;;;;19.17;13.90;;;-2.90;99.90;;;;;;5073665;28;20616;-71
2024/01/17 04:59:42;;;;;;;22.00;13.70;;;-3.00;90.30;;;;;;5072475;28;20213;-71
2024/01/17 05:02:08;;;;;;;21.50;14.50;;;-2.90;45.70;;;;;;5071848;28;20177;-71
2024/01/17 05:04:34;;;;;;;21.90;14.07;;;-2.90;17.90;;;;;;5071454;28;20231;-71
2024/01/17 05:07:00;;;;;;;18.27;13.87;;;-2.80;1.00;;;;;;5071721;28;20182;-71
2024/01/17 05:09:26;;;;;;;20.67;14.10;;;-2.90;1.00;;;;;;5071076;28;20673;-73
2024/01/17 05:11:52;;;;;;;23.53;13.87;;;-2.80;1.00;;;;;;5071929;28;20181;-71
2024/01/17 05:14:17;;;;;;;19.60;13.73;;;-2.80;1.00;;;;;;5071374;28;20202;-71
2024/01/17 05:16:43;;;;;;;21.37;13.90;;;-2.90;1.00;;;;;;5071683;28;20495;-71
2024/01/17 05:19:09;;;;;;;17.10;13.70;;;-2.90;1.00;;;;;;5070966;28;20186;-71
2024/01/17 05:21:34;;;;;;;22.77;14.70;;;-3.00;1.00;;;;;;5070672;28;20177;-71
2024/01/17 05:24:00;;;;;;;19.67;14.93;;;-2.90;1.00;;;;;;5071688;28;20527;-70
2024/01/17 05:26:25;;;;;;;25.47;15.17;;;-2.80;1.00;;;;;;5071269;28;20174;-70
2024/01/17 05:28:51;;;;;;;21.57;15.20;;;-2.90;1.00;;;;;;5070749;28;20217;-73
2024/01/17 05:31:17;;;;;;;19.47;15.03;;;-2.80;1.00;;;;;;5071425;28;20291;-70
2024/01/17 05:33:44;;;;;;;25.83;16.47;;;-2.70;1.00;;;;;;5071296;28;20205;-70
2024/01/17 05:36:09;;;;;;;25.03;16.30;;;-2.80;99.90;;;;;;5071279;28;20175;-71
2024/01/17 05:38:35;;;;;;;18.53;14.53;;;-2.80;99.90;;;;;;5070869;28;20189;-70
2024/01/17 05:41:01;;;;;;;22.80;15.97;;;-2.70;99.90;;;;;;5071717;28;20546;-71
2024/01/17 05:43:26;;;;;;;20.23;15.20;;;-2.70;99.90;;;;;;5071019;28;20178;-70
2024/01/17 05:45:52;;;;;;;25.57;16.53;;;-2.70;99.90;;;;;;5071448;28;20178;-70
2024/01/17 05:48:18;;;;;;;27.10;15.20;;;-2.70;1.00;;;;;;5070976;28;20269;-70
2024/01/17 05:50:45;;;;;;;26.20;15.67;;;-2.70;1.00;;;;;;5071029;28;20194;-71
2024/01/17 05:53:11;;;;;;;26.13;15.70;;;-2.70;1.00;;;;;;5071496;28;20596;-71
2024/01/17 05:55:37;;;;;;;23.10;15.93;;;-2.70;1.00;;;;;;5071464;28;20568;-70
2024/01/17 05:58:02;;;;;;;22.00;15.13;;;-2.70;1.00;;;;;;5071846;28;20192;-71
2024/01/17 06:00:28;;;;;;;34.90;16.67;;;-2.60;1.00;;;;;;5071081;28;20185;-71
2024/01/17 06:02:54;;;;;;;25.33;16.47;;;-2.50;1.00;;;;;;5071404;28;20173;-71
2024/01/17 06:05:20;;;;;;;25.57;16.80;;;-2.40;99.90;;;;;;5070610;28;20182;-71
2024/01/17 06:07:46;;;;;;;21.50;15.40;;;-2.70;99.90;;;;;;5071072;28;20212;-70
2024/01/17 06:10:13;;;;;;;23.97;15.07;;;-2.40;99.90;;;;;;5070488;28;20181;-71
2024/01/17 06:12:42;;;;;;;30.70;16.57;;;-2.50;99.90;;;;;;5070911;28;20614;-70
2024/01/17 06:15:09;;;;;;;23.67;16.17;;;-2.40;99.90;;;;;;5070884;28;20689;-71
2024/01/17 06:17:35;;;;;;;24.10;15.80;;;-2.40;99.90;;;;;;5052512;28;20198;-71
2024/01/17 06:20:01;;;;;;;21.53;15.57;;;-2.60;1.00;;;;;;5066068;28;20186;-71
2024/01/17 06:22:27;;;;;;;23.77;15.13;;;-2.50;1.00;;;;;;5071010;28;20622;-71
2024/01/17 06:24:52;;;;;;;29.33;15.33;;;-2.40;1.00;;;;;;5070852;28;20193;-71
2024/01/17 06:27:18;;;;;;;24.47;15.50;;;-2.30;1.00;;;;;;5070681;28;20178;-70
2024/01/17 06:29:45;;;;;;;23.13;14.20;;;-2.30;1.00;;;;;;5070526;28;20194;-70
2024/01/17 06:32:11;;;;;;;27.93;16.90;;;-2.40;1.00;;;;;;5053078;28;20710;-70
2024/01/17 06:34:37;;;;;;;23.17;15.30;;;-2.30;1.00;;;;;;5056198;28;20260;-71
2024/01/17 06:37:06;;;;;;;24.97;15.93;;;-2.20;99.90;;;;;;5074407;28;20657;-71
2024/01/17 06:39:32;;;;;;;30.60;17.07;;;-2.30;99.90;;;;;;5073660;28;20255;-72
2024/01/17 06:41:59;;;;;;;30.43;16.83;;;-2.30;99.90;;;;;;5074444;28;20228;-71
2024/01/17 06:44:26;;;;;;;31.80;17.03;;;-2.20;99.90;;;;;;5073722;28;20684;-70
2024/01/17 06:46:52;;;;;;;24.97;16.47;;;-2.30;99.90;;;;;;5073994;28;20200;-70
2024/01/17 06:49:18;;;;;;;23.73;15.50;;;-2.10;99.90;;;;;;5073751;28;20194;-70
2024/01/17 06:51:44;;;;;;;36.60;15.40;;;-2.10;99.90;;;;;;5056170;28;20182;-71
2024/01/17 06:54:09;;;;;;;25.87;15.23;;;-2.20;1.00;;;;;;5073858;28;20206;-71
2024/01/17 06:56:36;;;;;;;25.90;14.73;;;-2.10;1.00;;;;;;5073765;28;20594;-70
2024/01/17 06:59:02;;;;;;;28.27;16.07;;;-2.10;1.00;;;;;;5073556;28;20197;-70
2024/01/17 07:01:28;;;;;;;20.97;14.90;;;-2.10;1.00;;;;;;5056076;28;20178;-70
2024/01/17 07:03:54;;;;;;;22.27;14.97;;;-2.20;1.00;;;;;;5073861;28;20574;-70
2024/01/17 07:06:19;;;;;;;24.27;14.50;;;-2.00;1.00;;;;;;5074075;28;20181;-71
2024/01/17 07:08:45;;;;;;;27.20;14.87;;;-1.80;1.00;;;;;;5073432;28;20243;-72
2024/01/17 07:11:11;;;;;;;24.17;14.93;;;-2.20;1.00;;;;;;5073889;28;20523;-71
2024/01/17 07:13:38;;;;;;;27.23;14.20;;;-1.90;1.00;;;;;;5073385;28;20197;-71
2024/01/17 07:16:04;;;;;;;25.40;13.67;;;-2.10;1.00;;;;;;5073621;28;20689;-71
2024/01/17 07:18:30;;;;;;;19.57;13.77;;;-2.00;99.90;;;;;;5072991;28;20321;-72
2024/01/17 07:20:56;;;;;;;33.93;15.63;;;-1.90;99.90;;;;;;5075310;28;20261;-71
2024/01/17 07:23:21;;;;;;;20.50;13.63;;;-1.80;99.90;;;;;;5073523;28;20632;-71
2024/01/17 07:25:47;;;;;;;25.23;13.90;;;-2.00;99.90;;;;;;5073068;28;20200;-70
2024/01/17 07:28:14;;;;;;;24.10;14.70;;;-1.90;99.90;;;;;;5055530;28;20226;-71
2024/01/17 07:30:40;;;;;;;22.03;14.27;;;-1.70;45.60;;;;;;5073378;28;20166;-71
2024/01/17 07:33:05;;;;;;;34.83;16.37;;;-1.90;7.30;;;;;;5073452;28;20696;-71
2024/01/17 07:35:31;;;;;;;26.90;14.30;;;-1.60;7.90;;;;;;5073242;28;20593;-71
2024/01/17 07:37:58;;;;;;;26.67;14.87;;;-1.70;1.00;;;;;;5073797;28;20198;-72
2024/01/17 07:40:24;;;;;;;24.13;14.57;;;-1.70;1.00;;;;;;5074175;28;20176;-72
2024/01/17 07:42:51;;;;;;;25.27;14.33;;;-1.60;1.00;;;;;;5076119;28;20189;-70
2024/01/17 07:45:17;;;;;;;16.40;11.37;;;-1.60;1.00;;;;;;5072938;28;20212;-71
2024/01/17 07:47:43;;;;;;;18.70;12.93;;;-1.50;1.00;;;;;;5072910;28;20185;-72
2024/01/17 07:50:11;;;;;;;19.67;12.87;;;-1.50;1.00;;;;;;5067872;28;20181;-70
2024/01/17 07:52:38;;;;;;;22.27;13.93;;;-1.40;1.00;;;;;;5072772;28;20663;-71
2024/01/17 07:55:04;;;;;;;19.80;14.57;;;-1.70;1.00;;;;;;5054598;28;20688;-71
2024/01/17 07:57:30;;;;;;;20.97;15.97;;;-1.50;1.00;;;;;;5072372;28;20198;-70
2024/01/17 07:59:56;;;;;;;24.80;14.50;;;-1.60;1.00;;;;;;5072513;28;20178;-71
2024/01/17 08:02:22;;;;;;;18.43;12.27;;;-1.40;1.00;;;;;;5072861;28;20177;-71
2024/01/17 08:04:49;;;;;;;20.93;14.63;;;-1.30;1.00;;;;;;5072841;28;20177;-70
2024/01/17 08:07:14;;;;;;;22.90;12.97;;;-1.40;1.00;;;;;;5072632;28;20193;-71
2024/01/17 08:09:41;;;;;;;17.50;13.00;;;-1.20;1.00;;;;;;5054189;28;20189;-71
2024/01/17 08:12:07;;;;;;;21.37;13.70;;;-1.30;99.90;;;;;;5054708;28;20186;-71
2024/01/17 08:14:34;;;;;;;16.90;11.73;;;-1.10;99.90;;;;;;5072025;28;20688;-72
2024/01/17 08:17:01;;;;;;;19.63;12.90;;;-1.10;99.90;;;;;;5072779;28;20236;-72
2024/01/17 08:19:27;;;;;;;19.77;11.77;;;-0.90;99.90;;;;;;5072231;28;20193;-72
2024/01/17 08:21:53;;;;;;;13.67;11.47;;;-1.10;99.90;;;;;;5072190;28;20175;-72
2024/01/17 08:24:19;;;;;;;15.77;12.63;;;-1.10;99.90;;;;;;5073057;28;20217;-72
2024/01/17 08:26:45;;;;;;;17.17;12.17;;;-1.00;99.90;;;;;;5072352;28;20649;-72
2024/01/17 08:29:10;;;;;;;20.57;11.97;;;-0.90;99.90;;;;;;5071735;28;20198;-72
2024/01/17 08:31:36;;;;;;;13.40;11.53;;;-0.80;99.90;;;;;;5072067;28;20174;-72
2024/01/17 08:34:03;;;;;;;15.77;11.47;;;-1.00;99.50;;;;;;5071777;28;20202;-73
2024/01/17 08:36:29;;;;;;;14.80;11.00;;;-1.00;82.00;;;;;;5071981;28;20171;-73
2024/01/17 08:38:56;;;;;;;19.00;11.40;;;-0.80;52.30;;;;;;5071574;28;20243;-72
2024/01/17 08:41:21;;;;;;;12.97;11.07;;;-1.00;55.70;;;;;;5072149;28;20274;-72
2024/01/17 08:43:47;;;;;;;14.97;10.63;;;-0.70;25.00;;;;;;5072078;28;20261;-72
2024/01/17 08:46:14;;;;;;;14.17;11.47;;;-0.80;27.40;;;;;;5071852;28;20182;-72
2024/01/17 08:48:40;;;;;;;15.23;11.27;;;-0.80;16.50;;;;;;5071573;28;20190;-72
2024/01/17 08:51:07;;;;;;;11.80;10.60;;;-0.70;1.00;;;;;;5071916;28;20265;-72
2024/01/17 08:53:33;;;;;;;16.93;11.90;;;-0.90;1.00;;;;;;5053030;28;20232;-72
2024/01/17 08:56:00;;;;;;;14.40;12.27;;;-0.90;1.00;;;;;;5060845;28;20257;-72
2024/01/17 08:58:26;;;;;;;16.20;11.63;;;-0.80;1.00;;;;;;5051725;28;20244;-72
2024/01/17 09:00:52;;;;;;;14.23;10.60;;;-0.80;1.00;;;;;;5067415;28;20186;-72
2024/01/17 09:03:18;;;;;;;14.60;11.77;;;-0.70;1.00;;;;;;5038225;28;20262;-74
2024/01/17 09:05:44;;;;;;;13.63;10.80;;;-0.60;1.00;;;;;;5076296;28;20696;-73
2024/01/17 09:08:09;;;;;;;13.17;10.33;;;-0.40;1.00;;;;;;5075054;28;20262;-74
2024/01/17 09:10:35;;;;;;;14.57;11.27;;;-0.60;1.00;;;;;;5074616;28;20570;-73
2024/01/17 09:13:00;;;;;;;16.30;11.77;;;-0.40;1.00;;;;;;5074624;28;20205;-73
2024/01/17 09:15:26;;;;;;;18.20;11.47;;;-0.30;1.00;;;;;;5072771;28;20186;-75
2024/01/17 09:17:52;;;;;;;19.93;10.83;;;-0.40;1.00;;;;;;5072069;28;20280;-73
2024/01/17 09:20:17;;;;;;;15.97;11.53;;;-0.40;1.00;;;;;;5070954;28;20188;-72
2024/01/17 09:22:43;;;;;;;12.23;10.40;;;-0.40;1.00;;;;;;5070849;28;20162;-72
2024/01/17 09:25:09;;;;;;;13.57;10.67;;;-0.30;1.00;;;;;;5053073;28;20178;-73
2024/01/17 09:27:35;;;;;;;15.77;11.07;;;-0.30;1.00;;;;;;5052735;28;20197;-72
2024/01/17 09:30:02;;;;;;;17.10;11.83;;;-0.10;1.00;;;;;;5070988;28;20169;-74
2024/01/17 09:32:27;;;;;;;17.73;11.33;;;0.00;1.00;;;;;;5071447;28;20166;-73
2024/01/17 09:34:53;;;;;;;22.80;11.27;;;-0.10;1.00;;;;;;5071343;28;20571;-72
2024/01/17 09:37:19;;;;;;;18.10;11.17;;;0.00;1.00;;;;;;5071168;28;20665;-72
2024/01/17 09:39:45;;;;;;;14.10;10.60;;;0.10;1.00;;;;;;5070778;28;20254;-73
2024/01/17 09:42:12;;;;;;;15.27;11.17;;;0.00;1.00;;;;;;5070889;28;20609;-74
2024/01/17 09:44:38;;;;;;;11.50;10.30;;;0.10;1.00;;;;;;5070765;28;20166;-73
2024/01/17 09:47:05;;;;;;;15.40;11.23;;;0.20;1.00;;;;;;5071330;28;20228;-73
2024/01/17 09:49:32;;;;;;;14.03;10.87;;;0.10;1.00;;;;;;5070414;28;20209;-73
2024/01/17 09:52:04;;;;;;;13.37;10.47;;;0.20;1.00;;;;;;5072252;28;20239;-75
2024/01/17 09:54:40;;;;;;;13.83;11.67;;;0.30;1.00;;;;;;5077258;28;20197;-74
2024/01/17 09:57:09;;;;;;;14.87;11.03;;;0.20;1.00;;;;;;5078389;28;20573;-74
2024/01/17 09:59:45;;;;;;;11.83;10.63;;;0.30;1.00;;;;;;5077397;28;20181;-74
2024/01/17 10:02:12;;;;;;;16.37;11.10;;;0.30;1.00;;;;;;5071834;28;20509;-73
2024/01/17 10:04:41;;;;;;;11.73;10.00;;;0.40;1.00;;;;;;5070357;28;20228;-72
2024/01/17 10:07:07;;;;;;;16.70;11.27;;;0.40;1.00;;;;;;5074891;28;20219;-72
2024/01/17 10:09:33;;;;;;;14.67;10.87;;;0.40;1.00;;;;;;5074502;28;20193;-72
2024/01/17 10:11:59;;;;;;;19.10;11.40;;;0.40;1.00;;;;;;5081223;28;20181;-74
2024/01/17 10:14:25;;;;;;;15.27;10.57;;;0.50;1.00;;;;;;5078211;28;20661;-74
2024/01/17 10:16:51;;;;;;;16.10;11.77;;;0.40;1.00;;;;;;5083794;28;20170;-73
2024/01/17 10:19:18;;;;;;;13.20;10.90;;;0.40;1.00;;;;;;5085750;28;20186;-74
2024/01/17 10:21:43;;;;;;;14.93;11.30;;;0.40;1.00;;;;;;5078106;28;20258;-71
2024/01/17 10:24:10;;;;;;;16.10;11.30;;;0.50;1.00;;;;;;5075508;28;20260;-71
2024/01/17 10:26:41;;;;;;;18.03;12.43;;;0.50;1.00;;;;;;5080466;28;20194;-73
2024/01/17 10:29:07;;;;;;;16.77;12.53;;;0.50;1.00;;;;;;5081674;28;20193;-72
2024/01/17 10:31:33;;;;;;;12.53;11.33;;;0.60;1.00;;;;;;5074411;28;20540;-72
2024/01/17 10:33:59;;;;;;;15.57;11.47;;;0.60;1.00;;;;;;5074280;28;20201;-72
2024/01/17 10:36:25;;;;;;;15.13;11.13;;;0.60;1.00;;;;;;5074436;28;20174;-72
2024/01/17 10:38:50;;;;;;;15.53;10.60;;;0.60;1.00;;;;;;5074052;28;20280;-72
2024/01/17 10:41:16;;;;;;;15.37;10.63;;;0.70;1.00;;;;;;5074485;28;20243;-71
2024/01/17 10:43:53;;;;;;;19.50;12.37;;;0.60;1.00;;;;;;5074019;28;20181;-72
2024/01/17 10:46:19;;;;;;;16.07;11.50;;;0.70;1.00;;;;;;5056117;28;20178;-72
2024/01/17 10:48:45;;;;;;;20.57;11.50;;;0.70;1.00;;;;;;5073922;28;20252;-72
2024/01/17 10:51:22;;;;;;;19.40;12.30;;;0.70;1.00;;;;;;5074315;28;20181;-72
2024/01/17 10:53:51;;;;;;;19.43;11.60;;;0.80;1.00;;;;;;5073461;28;20206;-71
2024/01/17 10:56:19;;;;;;;16.43;12.37;;;0.80;1.00;;;;;;5081382;28;20173;-73
2024/01/17 10:58:48;;;;;;;15.43;12.40;;;0.90;1.00;;;;;;5058005;28;20194;-71
2024/01/17 11:01:17;;;;;;;17.53;12.53;;;0.80;1.00;;;;;;5061270;28;20183;-73
2024/01/17 11:03:46;;;;;;;14.93;12.10;;;0.90;1.00;;;;;;5086269;28;20579;-73
2024/01/17 11:06:12;;;;;;;17.40;11.03;;;0.90;1.00;;;;;;5088596;28;20190;-72
2024/01/17 11:08:41;;;;;;;19.53;12.63;;;0.80;1.00;;;;;;5091279;28;20277;-73
2024/01/17 11:11:09;;;;;;;17.20;11.77;;;0.90;1.00;;;;;;5086828;28;20186;-73
2024/01/17 11:13:36;;;;;;;19.47;12.97;;;1.00;1.00;;;;;;5083634;28;20213;-74
2024/01/17 11:16:05;;;;;;;17.47;10.77;;;0.80;1.00;;;;;;5067166;28;20170;-74
2024/01/17 11:18:34;;;;;;;15.97;10.97;;;1.00;1.00;;;;;;5084583;28;20186;-74
2024/01/17 11:21:01;;;;;;;14.63;12.60;;;1.00;1.00;;;;;;5082461;28;20586;-74
2024/01/17 11:24:01;;;;;;;15.67;12.07;;;0.90;1.00;;;;;;5065749;28;20706;-73
2024/01/17 11:26:35;;;;;;;16.87;11.47;;;0.90;1.00;;;;;;5065931;28;20174;-73
2024/01/17 11:29:46;;;;;;;16.90;12.03;;;0.80;1.00;;;;;;5085819;28;20584;-74
2024/01/17 11:32:28;;;;;;;21.83;14.30;;;0.80;1.00;;;;;;5086727;28;20177;-74
2024/01/17 11:34:53;;;;;;;19.20;12.03;;;0.70;1.00;;;;;;5082217;28;20220;-73
2024/01/17 11:37:38;;;;;;;13.53;11.23;;;0.50;1.00;;;;;;5082949;28;20667;-74
2024/01/17 11:40:04;;;;;;;20.60;15.00;;;0.60;1.00;;;;;;5082627;28;20283;-74
2024/01/17 11:42:31;;;;;;;23.10;16.93;;;0.50;1.00;;;;;;5083235;28;20245;-74
2024/01/17 11:44:58;;;;;;;18.93;14.13;;;0.50;1.00;;;;;;5084200;28;20166;-75
2024/01/17 11:47:23;;;;;;;16.23;12.83;;;0.60;46.20;;;;;;5085335;28;20166;-75
2024/01/17 11:49:54;;;;;;;20.60;13.50;;;0.60;99.90;;;;;;5088952;28;20178;-74
2024/01/17 11:52:27;;;;;;;21.77;12.37;;;0.60;99.90;;;;;;5088322;28;20235;-74
2024/01/17 11:54:54;;;;;;;20.57;13.40;;;0.60;99.90;;;;;;5086928;28;20205;-74
2024/01/17 11:57:19;;;;;;;18.93;13.77;;;0.80;99.90;;;;;;5066449;28;20382;-75
2024/01/17 12:00:11;;;;;;;19.20;13.87;;;0.80;99.90;;;;;;5084529;28;20601;-75
2024/01/17 12:02:38;;;;;;;24.83;19.13;;;0.80;99.90;;;;;;5083748;28;20197;-74
2024/01/17 12:05:06;;;;;;;31.73;19.13;;;0.80;1.00;;;;;;5084241;28;20174;-73
2024/01/17 12:07:36;;;;;;;26.63;17.43;;;0.60;1.00;;;;;;5064555;28;20573;-75
2024/01/17 12:10:08;;;;;;;22.73;15.70;;;0.60;1.00;;;;;;5084407;28;20177;-74
2024/01/17 12:12:34;;;;;;;21.47;13.47;;;0.50;99.90;;;;;;5085127;28;20185;-73
2024/01/17 12:15:00;;;;;;;30.67;17.27;;;0.70;99.90;;;;;;5081106;28;20228;-74
2024/01/17 12:17:25;;;;;;;34.90;22.23;;;0.50;1.00;;;;;;5075927;28;20625;-74
2024/01/17 12:19:52;;;;;;;22.50;16.60;;;0.40;99.90;;;;;;5060512;28;20559;-74
2024/01/17 12:22:17;;;;;;;18.80;14.40;;;0.50;1.00;;;;;;5079023;28;20162;-75
2024/01/17 12:24:43;;;;;;;23.37;15.00;;;0.60;1.00;;;;;;5081587;28;20209;-74
2024/01/17 12:27:09;;;;;;;21.77;15.63;;;0.70;1.00;;;;;;5079657;28;20190;-74
2024/01/17 12:29:36;;;;;;;22.73;15.77;;;0.50;1.00;;;;;;5076205;28;20185;-74
2024/01/17 12:32:03;;;;;;;21.47;16.20;;;0.60;99.90;;;;;;5078405;28;20166;-75